createdAt,value
2019-01-02T00:01:11.995Z,21.35
2019-01-02T00:04:15.495Z,21.34
2019-01-02T00:07:19.001Z,21.34
2019-01-02T00:10:22.489Z,21.32
2019-01-02T00:13:26.089Z,21.31
2019-01-02T00:16:29.532Z,21.30
2019-01-02T00:19:32.991Z,21.30
2019-01-02T00:22:36.612Z,21.30
2019-01-02T00:25:41.537Z,21.30
2019-01-02T00:28:46.473Z,21.27
2019-01-02T00:31:50.382Z,21.26
2019-01-02T00:34:55.403Z,21.26
2019-01-02T00:37:58.838Z,21.26
2019-01-02T00:41:09.298Z,21.26
2019-01-02T00:44:12.734Z,21.26
2019-01-02T00:47:17.335Z,21.27
2019-01-02T00:50:20.913Z,21.24
2019-01-02T00:53:24.461Z,21.24
2019-01-02T00:56:29.453Z,21.23
2019-01-02T00:59:35.391Z,21.23
2019-01-02T01:02:38.916Z,21.23
2019-01-02T01:05:48.350Z,21.22
2019-01-02T01:08:51.860Z,21.23
2019-01-02T01:11:55.346Z,21.23
2019-01-02T01:14:59.255Z,21.24
2019-01-02T01:18:03.180Z,21.24
2019-01-02T01:21:07.075Z,21.24
2019-01-02T01:24:11.611Z,21.23
2019-01-02T01:27:15.061Z,21.23
2019-01-02T01:30:18.601Z,21.23
2019-01-02T01:33:24.145Z,21.22
2019-01-02T01:36:28.662Z,21.22
2019-01-02T01:39:32.209Z,21.20
2019-01-02T01:42:40.803Z,21.20
2019-01-02T01:45:45.310Z,21.20
2019-01-02T01:48:48.786Z,21.20
2019-01-02T01:51:53.353Z,21.20
2019-01-02T01:54:56.876Z,21.19
2019-01-02T01:58:00.357Z,21.18
2019-01-02T02:01:03.848Z,21.18
2019-01-02T02:04:07.472Z,21.18
2019-01-02T02:07:11.113Z,21.16
2019-01-02T02:10:17.421Z,21.16
2019-01-02T02:13:22.979Z,21.17
2019-01-02T02:16:27.495Z,21.15
2019-01-02T02:19:31.017Z,21.15
2019-01-02T02:22:34.502Z,21.16
2019-01-02T02:25:38.005Z,21.16
2019-01-02T02:28:43.612Z,21.16
2019-01-02T02:31:47.054Z,21.16
2019-01-02T02:34:51.642Z,21.17
2019-01-02T02:37:55.304Z,21.17
2019-01-02T02:40:58.992Z,21.16
2019-01-02T02:44:02.506Z,21.16
2019-01-02T02:47:06.395Z,21.18
2019-01-02T02:50:14.524Z,21.17
2019-01-02T02:53:18.141Z,21.16
2019-01-02T02:56:24.067Z,21.17
2019-01-02T02:59:29.031Z,21.16
2019-01-02T03:02:32.926Z,21.17
2019-01-02T03:05:38.854Z,21.16
2019-01-02T03:08:44.289Z,21.15
2019-01-02T03:11:47.913Z,21.15
2019-01-02T03:14:51.425Z,21.15
2019-01-02T03:17:54.872Z,21.14
2019-01-02T03:20:58.426Z,21.13
2019-01-02T03:24:01.923Z,21.14
2019-01-02T03:27:05.428Z,21.14
2019-01-02T03:30:18.042Z,21.14
2019-01-02T03:33:24.106Z,21.13
2019-01-02T03:36:28.613Z,21.13
2019-01-02T03:39:32.065Z,21.14
2019-01-02T03:42:35.626Z,21.13
2019-01-02T03:45:39.131Z,21.13
2019-01-02T03:48:42.635Z,21.13
2019-01-02T03:51:46.133Z,21.13
2019-01-02T03:54:49.634Z,21.13
2019-01-02T03:57:55.177Z,21.13
2019-01-02T04:00:58.672Z,21.14
2019-01-02T04:04:02.189Z,21.14
2019-01-02T04:07:10.024Z,21.13
2019-01-02T04:10:13.795Z,21.13
2019-01-02T04:13:17.302Z,21.13
2019-01-02T04:16:21.054Z,21.12
2019-01-02T04:19:24.554Z,21.12
2019-01-02T04:22:28.004Z,21.13
2019-01-02T04:25:31.494Z,21.13
2019-01-02T04:28:35.108Z,21.14
2019-01-02T04:31:38.610Z,21.13
2019-01-02T04:34:42.102Z,21.13
2019-01-02T04:37:47.655Z,21.12
2019-01-02T04:40:51.156Z,21.12
2019-01-02T04:43:55.682Z,21.12
2019-01-02T04:46:59.180Z,21.11
2019-01-02T04:50:04.527Z,21.09
2019-01-02T04:53:10.145Z,21.12
2019-01-02T04:56:13.775Z,21.10
2019-01-02T04:59:18.317Z,21.10
2019-01-02T05:02:21.813Z,21.11
2019-01-02T05:05:27.357Z,21.10
2019-01-02T05:08:32.937Z,21.10
2019-01-02T05:11:42.444Z,21.11
2019-01-02T05:14:45.946Z,21.11
2019-01-02T05:17:49.461Z,21.10
2019-01-02T05:20:53.090Z,21.11
2019-01-02T05:23:57.568Z,21.12
2019-01-02T05:27:01.072Z,21.13
2019-01-02T05:30:11.430Z,21.12
2019-01-02T05:33:16.070Z,21.12
2019-01-02T05:36:20.583Z,21.11
2019-01-02T05:39:24.106Z,21.11
2019-01-02T05:42:27.550Z,21.11
2019-01-02T05:45:33.137Z,21.11
2019-01-02T05:48:36.641Z,21.10
2019-01-02T05:51:40.138Z,21.10
2019-01-02T05:54:45.692Z,21.09
2019-01-02T05:57:49.222Z,21.10
2019-01-02T06:00:56.993Z,21.09
2019-01-02T06:04:01.438Z,21.07
2019-01-02T06:07:04.904Z,21.08
2019-01-02T06:10:11.389Z,21.09
2019-01-02T06:13:21.852Z,21.09
2019-01-02T06:16:25.369Z,21.09
2019-01-02T06:19:30.897Z,21.08
2019-01-02T06:22:34.388Z,21.07
2019-01-02T06:25:37.919Z,21.06
2019-01-02T06:28:43.441Z,21.05
2019-01-02T06:31:49.029Z,21.07
2019-01-02T06:34:52.508Z,21.05
2019-01-02T06:37:55.934Z,21.05
2019-01-02T06:40:59.455Z,21.04
2019-01-02T06:44:03.006Z,21.05
2019-01-02T06:47:07.530Z,21.04
2019-01-02T06:50:14.608Z,21.04
2019-01-02T06:53:19.241Z,21.05
2019-01-02T06:56:24.782Z,21.04
2019-01-02T06:59:35.256Z,21.03
2019-01-02T07:02:38.694Z,21.04
2019-01-02T07:05:42.253Z,21.03
2019-01-02T07:08:45.752Z,21.05
2019-01-02T07:11:50.337Z,21.06
2019-01-02T07:14:54.104Z,21.06
2019-01-02T07:17:58.719Z,21.06
2019-01-02T07:21:02.229Z,21.06
2019-01-02T07:24:07.764Z,21.07
2019-01-02T07:27:11.299Z,21.06
2019-01-02T07:30:17.633Z,21.06
2019-01-02T07:33:25.651Z,21.06
2019-01-02T07:36:54.434Z,21.07
2019-01-02T07:40:26.004Z,21.07
2019-01-02T07:44:00.728Z,21.07
2019-01-02T07:47:59.498Z,21.06
2019-01-02T07:51:55.509Z,21.06
2019-01-02T07:55:36.640Z,21.05
2019-01-02T07:59:21.850Z,21.06
2019-01-02T08:03:01.245Z,21.05
2019-01-02T08:06:30.351Z,21.05
2019-01-02T08:10:13.615Z,21.06
2019-01-02T08:13:58.871Z,21.04
2019-01-02T08:17:49.734Z,21.04
2019-01-02T08:21:32.217Z,21.04
2019-01-02T08:25:11.127Z,21.06
2019-01-02T08:28:59.878Z,21.06
2019-01-02T08:32:30.363Z,21.05
2019-01-02T08:36:14.776Z,21.05
2019-01-02T08:40:01.351Z,21.04
2019-01-02T08:43:38.679Z,21.04
2019-01-02T08:47:33.034Z,21.02
2019-01-02T08:51:01.873Z,21.04
2019-01-02T08:54:36.095Z,21.05
2019-01-02T08:58:15.118Z,21.06
2019-01-02T09:02:09.258Z,21.07
2019-01-02T09:05:39.160Z,21.09
2019-01-02T09:09:17.846Z,21.09
2019-01-02T09:12:50.559Z,21.09
2019-01-02T09:16:28.965Z,21.13
2019-01-02T09:20:14.457Z,21.13
2019-01-02T09:23:50.521Z,21.13
2019-01-02T09:27:28.485Z,21.14
2019-01-02T09:31:07.866Z,21.15
2019-01-02T09:34:47.256Z,21.15
2019-01-02T09:38:36.250Z,21.16
2019-01-02T09:42:12.034Z,21.17
2019-01-02T09:45:40.311Z,21.16
2019-01-02T09:49:19.244Z,21.18
2019-01-02T09:52:59.161Z,21.19
2019-01-02T09:56:20.307Z,21.19
2019-01-02T09:59:51.877Z,21.20
2019-01-02T10:03:35.294Z,21.21
2019-01-02T10:07:09.400Z,21.22
2019-01-02T10:10:43.733Z,21.22
2019-01-02T10:14:43.990Z,21.22
2019-01-02T10:18:33.142Z,21.23
2019-01-02T10:22:02.204Z,21.24
2019-01-02T10:25:42.280Z,21.23
2019-01-02T10:29:21.037Z,21.24
2019-01-02T10:32:54.018Z,21.24
2019-01-02T10:36:41.692Z,21.25
2019-01-02T10:40:37.959Z,21.26
2019-01-02T10:44:04.125Z,21.27
2019-01-02T10:47:45.621Z,21.26
2019-01-02T10:51:32.535Z,21.25
2019-01-02T10:55:11.061Z,21.26
2019-01-02T10:58:45.329Z,21.26
2019-01-02T11:02:24.058Z,21.26
2019-01-02T11:05:53.114Z,21.26
2019-01-02T11:09:40.254Z,21.26
2019-01-02T11:13:36.481Z,21.27
2019-01-02T11:17:07.123Z,21.26
2019-01-02T11:20:53.843Z,21.27
2019-01-02T11:24:41.362Z,21.28
2019-01-02T11:28:06.052Z,21.29
2019-01-02T11:31:55.754Z,21.28
2019-01-02T11:35:43.907Z,21.28
2019-01-02T11:38:58.345Z,21.30
2019-01-02T11:42:38.011Z,21.32
2019-01-02T11:45:41.604Z,21.32
2019-01-02T11:48:45.095Z,21.33
2019-01-02T11:51:48.534Z,21.34
2019-01-02T11:54:52.102Z,21.34
2019-01-02T11:57:58.366Z,21.36
2019-01-02T12:01:01.966Z,21.38
2019-01-02T12:04:06.499Z,21.38
2019-01-02T12:07:10.000Z,21.38
2019-01-02T12:10:13.938Z,21.40
2019-01-02T12:13:17.525Z,21.41
2019-01-02T12:16:21.108Z,21.42
2019-01-02T12:19:24.625Z,21.43
2019-01-02T12:22:28.235Z,21.44
2019-01-02T12:25:41.872Z,21.46
2019-01-02T12:28:46.411Z,21.46
2019-01-02T12:31:49.906Z,21.45
2019-01-02T12:34:53.478Z,21.48
2019-01-02T12:37:57.086Z,21.47
2019-01-02T12:41:00.588Z,21.46
2019-01-02T12:44:04.027Z,21.48
2019-01-02T12:47:07.597Z,21.48
2019-01-02T12:50:11.086Z,21.48
2019-01-02T12:53:14.612Z,21.49
2019-01-02T12:56:18.103Z,21.48
2019-01-02T12:59:26.915Z,21.48
2019-01-02T13:03:13.017Z,21.50
2019-01-02T13:06:37.934Z,21.51
2019-01-02T13:10:22.099Z,21.52
2019-01-02T13:13:55.461Z,21.51
2019-01-02T13:17:47.695Z,21.51
2019-01-02T13:21:28.367Z,21.52
2019-01-02T13:25:01.540Z,21.52
2019-01-02T13:28:13.311Z,21.52
2019-01-02T13:31:30.073Z,21.55
2019-01-02T13:34:57.490Z,21.55
2019-01-02T13:38:24.061Z,21.58
2019-01-02T13:42:02.823Z,21.57
2019-01-02T13:45:13.513Z,21.60
2019-01-02T13:48:44.547Z,21.57
2019-01-02T13:51:52.350Z,21.58
2019-01-02T13:54:59.195Z,21.59
2019-01-02T13:58:03.755Z,21.59
2019-01-02T14:01:07.246Z,21.59
2019-01-02T14:04:11.950Z,21.59
2019-01-02T14:07:15.657Z,21.58
2019-01-02T14:10:19.305Z,21.59
2019-01-02T14:13:22.931Z,21.56
2019-01-02T14:16:27.417Z,21.58
2019-01-02T14:19:37.066Z,21.59
2019-01-02T14:22:41.598Z,21.57
2019-01-02T14:25:45.094Z,21.58
2019-01-02T14:28:48.615Z,21.58
2019-01-02T14:31:52.101Z,21.58
2019-01-02T14:34:55.717Z,21.58
2019-01-02T14:37:59.345Z,21.59
2019-01-02T14:41:02.795Z,21.59
2019-01-02T14:44:06.307Z,21.60
2019-01-02T14:47:09.807Z,21.62
2019-01-02T14:50:14.454Z,21.60
2019-01-02T14:53:18.166Z,21.61
2019-01-02T14:56:21.729Z,21.61
2019-01-02T14:59:25.240Z,21.60
2019-01-02T15:02:29.779Z,21.62
2019-01-02T15:05:34.299Z,21.61
2019-01-02T15:08:37.802Z,21.62
2019-01-02T15:11:41.409Z,21.62
2019-01-02T15:14:45.012Z,21.62
2019-01-02T15:17:49.523Z,21.64
2019-01-02T15:20:53.132Z,21.64
2019-01-02T15:23:56.754Z,21.66
2019-01-02T15:27:00.252Z,21.67
2019-01-02T15:30:03.851Z,21.67
2019-01-02T15:33:07.465Z,21.67
2019-01-02T15:36:11.039Z,21.66
2019-01-02T15:39:14.642Z,21.68
2019-01-02T15:42:18.160Z,21.68
2019-01-02T15:45:21.736Z,21.68
2019-01-02T15:48:25.357Z,21.69
2019-01-02T15:51:29.864Z,21.68
2019-01-02T15:54:33.397Z,21.67
2019-01-02T15:57:36.869Z,21.70
2019-01-02T16:00:40.378Z,21.68
2019-01-02T16:03:43.955Z,21.68
2019-01-02T16:06:47.613Z,21.68
2019-01-02T16:09:51.208Z,21.68
2019-01-02T16:12:54.819Z,21.66
2019-01-02T16:15:58.411Z,21.68
2019-01-02T16:19:02.004Z,21.69
2019-01-02T16:22:06.531Z,21.68
2019-01-02T16:25:10.480Z,21.68
2019-01-02T16:28:13.928Z,21.67
2019-01-02T16:31:17.462Z,21.68
2019-01-02T16:34:21.061Z,21.66
2019-01-02T16:37:24.675Z,21.64
2019-01-02T16:40:29.186Z,21.64
2019-01-02T16:43:32.677Z,21.67
2019-01-02T16:46:36.126Z,21.65
2019-01-02T16:49:39.666Z,21.65
2019-01-02T16:52:43.186Z,21.66
2019-01-02T16:55:46.678Z,21.66
2019-01-02T16:58:50.296Z,21.66
2019-01-02T17:01:53.924Z,21.66
2019-01-02T17:04:57.505Z,21.66
2019-01-02T17:08:04.970Z,21.66
2019-01-02T17:11:08.534Z,21.67
2019-01-02T17:14:13.022Z,21.67
2019-01-02T17:17:23.566Z,21.66
2019-01-02T17:20:27.237Z,21.66
2019-01-02T17:23:30.891Z,21.67
2019-01-02T17:26:34.379Z,21.67
2019-01-02T17:29:38.920Z,21.67
2019-01-02T17:32:42.438Z,21.67
2019-01-02T17:35:45.942Z,21.66
2019-01-02T17:38:49.414Z,21.66
2019-01-02T17:41:52.934Z,21.66
2019-01-02T17:44:56.409Z,21.66
2019-01-02T17:48:00.027Z,21.66
2019-01-02T17:51:03.651Z,21.66
2019-01-02T17:54:07.248Z,21.67
2019-01-02T17:57:10.850Z,21.66
2019-01-02T18:00:14.400Z,21.66
2019-01-02T18:03:18.848Z,21.68
2019-01-02T18:06:22.364Z,21.67
2019-01-02T18:09:25.876Z,21.67
2019-01-02T18:12:29.390Z,21.68
2019-01-02T18:15:32.862Z,21.75
2019-01-02T18:18:36.354Z,21.78
2019-01-02T18:21:40.904Z,21.83
2019-01-02T18:24:44.385Z,21.85
2019-01-02T18:27:47.872Z,21.87
2019-01-02T18:30:51.401Z,21.90
2019-01-02T18:33:54.884Z,21.93
2019-01-02T18:36:58.385Z,21.93
2019-01-02T18:40:04.259Z,21.96
2019-01-02T18:43:07.925Z,21.99
2019-01-02T18:46:11.606Z,22.00
2019-01-02T18:49:15.086Z,22.03
2019-01-02T18:52:24.495Z,22.03
2019-01-02T18:55:33.734Z,22.04
2019-01-02T18:58:39.336Z,22.07
2019-01-02T19:01:42.792Z,22.09
2019-01-02T19:04:46.297Z,22.12
2019-01-02T19:07:49.795Z,22.13
2019-01-02T19:10:53.298Z,22.15
2019-01-02T19:13:57.130Z,22.16
2019-01-02T19:17:00.819Z,22.18
2019-01-02T19:20:05.017Z,22.19
2019-01-02T19:23:10.574Z,22.21
2019-01-02T19:26:15.087Z,22.23
2019-01-02T19:29:18.592Z,22.24
2019-01-02T19:32:22.143Z,22.26
2019-01-02T19:35:25.586Z,22.26
2019-01-02T19:38:29.094Z,22.30
2019-01-02T19:41:36.810Z,22.31
2019-01-02T19:44:40.409Z,22.31
2019-01-02T19:47:43.850Z,22.32
2019-01-02T19:50:49.462Z,22.32
2019-01-02T19:53:52.964Z,22.34
2019-01-02T19:56:57.562Z,22.34
2019-01-02T20:00:03.083Z,22.36
2019-01-02T20:03:06.727Z,22.37
2019-01-02T20:06:12.286Z,22.37
2019-01-02T20:09:17.133Z,22.38
2019-01-02T20:12:20.717Z,22.39
2019-01-02T20:15:25.255Z,22.39
2019-01-02T20:18:32.119Z,22.41
2019-01-02T20:21:35.731Z,22.40
2019-01-02T20:24:39.228Z,22.42
2019-01-02T20:27:42.721Z,22.43
2019-01-02T20:30:47.273Z,22.43
2019-01-02T20:33:51.929Z,22.44
2019-01-02T20:36:55.481Z,22.45
2019-01-02T20:39:59.014Z,22.47
2019-01-02T20:43:02.490Z,22.47
2019-01-02T20:46:06.017Z,22.48
2019-01-02T20:49:10.533Z,22.49
2019-01-02T20:52:14.015Z,22.49
2019-01-02T20:55:17.524Z,22.51
2019-01-02T20:58:21.020Z,22.52
2019-01-02T21:01:24.529Z,22.52
2019-01-02T21:04:30.061Z,22.54
2019-01-02T21:07:33.588Z,22.54
2019-01-02T21:10:37.216Z,22.55
2019-01-02T21:13:40.878Z,22.54
2019-01-02T21:16:44.502Z,22.55
2019-01-02T21:19:48.039Z,22.56
2019-01-02T21:22:51.490Z,22.56
2019-01-02T21:25:56.020Z,22.56
2019-01-02T21:28:59.915Z,22.57
2019-01-02T21:32:03.462Z,22.57
2019-01-02T21:35:07.977Z,22.58
2019-01-02T21:38:11.507Z,22.57
2019-01-02T21:41:17.033Z,22.52
2019-01-02T21:44:21.515Z,22.45
2019-01-02T21:47:25.019Z,22.40
2019-01-02T21:50:29.171Z,22.35
2019-01-02T21:53:34.683Z,22.30
2019-01-02T21:56:38.193Z,22.26
2019-01-02T21:59:41.683Z,22.23
2019-01-02T22:02:45.184Z,22.20
2019-01-02T22:05:49.176Z,22.19
2019-01-02T22:08:54.856Z,22.16
2019-01-02T22:11:59.416Z,22.13
2019-01-02T22:15:02.874Z,22.11
2019-01-02T22:18:06.438Z,22.09
2019-01-02T22:21:12.384Z,22.08
2019-01-02T22:24:18.921Z,22.07
2019-01-02T22:27:23.434Z,22.04
2019-01-02T22:30:26.933Z,22.03
2019-01-02T22:33:30.450Z,22.01
2019-01-02T22:36:33.968Z,22.00
2019-01-02T22:39:42.564Z,21.99
2019-01-02T22:42:51.170Z,21.95
2019-01-02T22:45:56.720Z,21.93
2019-01-02T22:49:02.272Z,21.92
2019-01-02T22:52:05.786Z,21.89
2019-01-02T22:55:09.275Z,21.88
2019-01-02T22:58:13.815Z,21.87
2019-01-02T23:01:30.707Z,21.85
2019-01-02T23:04:52.318Z,21.84
2019-01-02T23:08:19.050Z,21.82
2019-01-02T23:11:32.660Z,21.81
2019-01-02T23:14:56.500Z,21.79
2019-01-02T23:18:12.613Z,21.77
2019-01-02T23:21:44.778Z,21.77
2019-01-02T23:25:07.521Z,21.75
2019-01-02T23:28:39.700Z,21.73
2019-01-02T23:32:01.275Z,21.71
2019-01-02T23:35:21.621Z,21.70
2019-01-02T23:38:53.323Z,21.69
2019-01-02T23:42:14.847Z,21.68
2019-01-02T23:45:47.174Z,21.69
2019-01-02T23:49:16.077Z,21.69
2019-01-02T23:52:53.082Z,21.69
2019-01-02T23:56:17.037Z,21.68
2019-01-02T23:59:34.267Z,21.67
